Time;durP1;ratioP1;P1;durP2;ratioP2;P2;SDS_P1;SDS_P2;PMS_P1;PMS_P2;Temp;Humidity;BMP_temperature;BMP_pressure;BME280_temperature;BME280_humidity;BME280_pressure;Samples;Min_cycle;Max_cycle;Signal;HPM_P1;HPM_P2
2024/01/01 00:01:56;;;;;;;33.40;16.60;;;;;;;11.91;100.00;98312.28;6219653;23;20385;-96
2024/01/01 00:04:29;;;;;;;29.38;16.58;;;;;;;11.99;100.00;98319.09;6195837;23;20112;-95
2024/01/01 00:07:12;;;;;;;31.65;16.55;;;;;;;12.01;100.00;98326.09;6222197;23;20017;-96
2024/01/01 00:09:54;;;;;;;36.63;16.30;;;;;;;12.51;100.00;98404.97;6195869;23;20088;-95
2024/01/01 00:12:31;;;;;;;31.08;16.33;;;;;;;12.06;100.00;98323.28;6221425;23;20490;-94
2024/01/01 00:15:00;;;;;;;33.47;16.42;;;;;;;12.09;100.00;98336.47;6197881;23;20332;-95
2024/01/01 00:18:03;;;;;;;29.58;15.02;;;;;;;12.21;100.00;98345.75;6197091;23;20147;-95
2024/01/01 00:26:57;;;;;;;27.55;13.40;;;;;;;12.36;100.00;98350.47;6197743;23;20005;-95
2024/01/01 00:32:17;;;;;;;27.80;13.18;;;;;;;12.03;100.00;98316.25;6170895;23;20052;-93
2024/01/01 00:34:54;;;;;;;26.65;13.68;;;;;;;12.13;100.00;98322.94;6219040;23;20104;-95
2024/01/01 00:37:23;;;;;;;38.38;15.48;;;;;;;12.19;100.00;98326.28;6198879;23;20048;-94
2024/01/01 00:39:58;;;;;;;26.88;14.10;;;;;;;12.12;100.00;98326.56;6195958;23;20025;-95
2024/01/01 00:42:53;;;;;;;27.33;12.98;;;;;;;12.50;100.00;98387.25;6182893;23;20028;-96
2024/01/01 00:45:22;;;;;;;25.10;13.43;;;;;;;12.37;100.00;98386.88;6192050;23;20001;-95
2024/01/01 00:47:56;;;;;;;27.65;13.35;;;;;;;12.04;100.00;98333.97;6189347;23;20436;-96
2024/01/01 00:50:31;;;;;;;24.27;12.63;;;;;;;12.09;100.00;98331.13;6191661;23;20009;-96
2024/01/01 00:53:03;;;;;;;25.75;11.57;;;;;;;12.32;100.00;98338.22;6190987;23;20048;-96
2024/01/01 00:55:31;;;;;;;24.05;12.77;;;;;;;12.21;100.00;98313.75;6189806;23;20078;-95
2024/01/01 00:58:06;;;;;;;25.38;12.13;;;;;;;12.11;100.00;98327.47;6193816;23;20032;-95
2024/01/01 01:00:42;;;;;;;24.17;12.10;;;;;;;12.09;100.00;98320.47;6169251;23;20005;-95
2024/01/01 01:03:26;;;;;;;22.02;11.48;;;;;;;12.07;100.00;98317.84;6169591;23;20021;-96
2024/01/01 01:05:59;;;;;;;22.55;11.73;;;;;;;12.07;100.00;98298.34;6153475;23;20005;-95
2024/01/01 01:08:40;;;;;;;24.63;12.20;;;;;;;11.97;100.00;98310.28;6164914;23;20021;-95
2024/01/01 01:11:08;;;;;;;24.83;12.80;;;;;;;12.27;100.00;98382.81;6167471;23;20450;-96
2024/01/01 01:13:52;;;;;;;22.67;11.63;;;;;;;11.90;100.00;98320.34;6167360;23;20007;-95
2024/01/01 01:16:31;;;;;;;29.17;13.18;;;;;;;12.02;100.00;98334.97;6168181;23;20436;-95
2024/01/01 01:19:07;;;;;;;24.20;12.27;;;;;;;12.05;100.00;98343.69;6168692;23;20447;-95
2024/01/01 01:21:33;;;;;;;;;;;;;;;12.45;100.00;98422.09;6168787;23;20001;-96
2024/01/01 01:24:05;;;;;;;26.55;11.90;;;;;;;12.00;100.00;98348.34;6169421;23;19912;-95
2024/01/01 01:26:46;;;;;;;21.83;10.60;;;;;;;12.00;100.00;98348.34;6169874;23;20021;-95
2024/01/01 01:29:35;;;;;;;22.05;10.80;;;;;;;11.97;100.00;98339.59;6167457;23;20017;-96
2024/01/01 01:36:02;;;;;;;16.25;9.32;;;;;;;12.48;100.00;98421.97;6165347;23;20001;-96
2024/01/01 01:38:50;;;;;;;;;;;;;;;;;;;;;
2024/01/01 01:41:28;;;;;;;22.13;9.30;;;;;;;12.10;100.00;98360.41;6190373;23;20067;-96
2024/01/01 01:44:00;;;;;;;20.35;9.68;;;;;;;11.99;100.00;98337.75;6167324;23;20105;-96
2024/01/01 01:46:50;;;;;;;17.00;9.60;;;;;;;12.41;100.00;98415.16;6166919;23;20013;-96
2024/01/01 01:49:24;;;;;;;33.05;9.90;;;;;;;12.01;100.00;98334.09;6167574;23;20032;-96
2024/01/01 01:51:59;;;;;;;18.20;8.13;;;;;;;12.08;100.00;98322.28;6168538;23;20506;-96
2024/01/01 01:54:28;;;;;;;13.65;8.25;;;;;;;12.14;100.00;98329.13;6168468;23;20047;-96
2024/01/01 01:57:03;;;;;;;16.27;7.97;;;;;;;12.36;100.00;98376.25;6166753;23;20332;-94
2024/01/01 01:59:35;;;;;;;16.58;8.13;;;;;;;12.68;100.00;98405.13;6179471;23;20036;-96
2024/01/01 02:02:17;;;;;;;19.50;7.40;;;;;;;12.36;100.00;98334.47;6190820;23;20021;-96
2024/01/01 02:04:49;;;;;;;17.45;7.13;;;;;;;12.29;100.00;98320.50;6190792;23;20021;-95
2024/01/01 02:07:25;;;;;;;14.93;8.15;;;;;;;12.48;100.00;98349.09;6191318;23;20045;-94
2024/01/01 02:09:53;;;;;;;16.20;7.38;;;;;;;12.40;100.00;98325.41;6190746;23;20024;-95
2024/01/01 02:12:25;;;;;;;13.88;6.85;;;;;;;12.34;100.00;98315.00;6191201;23;20435;-95
2024/01/01 02:14:54;;;;;;;15.70;6.75;;;;;;;12.69;100.00;98369.53;6189544;23;20017;-96
2024/01/01 02:17:43;;;;;;;14.63;6.55;;;;;;;12.41;100.00;98321.81;6100440;23;20022;-95
2024/01/01 02:20:28;;;;;;;14.15;6.57;;;;;;;12.85;100.00;98398.25;6101139;23;20090;-94
2024/01/01 02:22:56;;;;;;;13.52;7.07;;;;;;;12.63;100.00;98356.44;6173348;23;20112;-95
2024/01/01 02:25:25;;;;;;;13.00;6.47;;;;;;;12.43;100.00;98325.28;6189807;23;20100;-96
2024/01/01 02:27:57;;;;;;;12.35;6.60;;;;;;;12.51;100.00;98327.63;6191806;23;20087;-96
2024/01/01 02:30:26;;;;;;;12.05;5.85;;;;;;;12.69;100.00;98352.66;6190222;23;20112;-95
2024/01/01 02:32:52;;;;;;;10.65;5.40;;;;;;;12.40;100.00;98317.41;6189160;23;20081;-96
2024/01/01 02:35:21;;;;;;;10.05;5.90;;;;;;;12.45;100.00;98323.44;6188826;23;20043;-96
2024/01/01 02:37:52;;;;;;;13.20;5.60;;;;;;;12.58;100.00;98333.56;6189721;23;20451;-95
2024/01/01 02:40:22;;;;;;;12.70;6.47;;;;;;;12.44;100.00;98315.47;6190371;23;20025;-94
2024/01/01 02:42:54;;;;;;;10.75;5.90;;;;;;;12.29;100.00;98301.00;6189639;23;20440;-94
2024/01/01 02:45:22;;;;;;;13.93;5.88;;;;;;;12.31;100.00;98304.47;6188579;23;20021;-96
2024/01/01 02:47:48;;;;;;;15.13;5.90;;;;;;;12.48;100.00;98333.94;6188285;23;20085;-96
2024/01/01 02:50:20;;;;;;;14.80;5.38;;;;;;;12.45;100.00;98328.75;6188594;23;20021;-95
2024/01/01 02:52:54;;;;;;;16.75;5.47;;;;;;;12.32;100.00;98292.88;6187953;23;20018;-95
2024/01/01 02:55:25;;;;;;;12.05;5.63;;;;;;;12.39;100.00;98297.00;6187607;23;20498;-95
2024/01/01 02:57:51;;;;;;;14.75;6.40;;;;;;;12.40;100.00;98290.72;6186609;23;20021;-95
2024/01/01 03:00:26;;;;;;;10.27;5.88;;;;;;;12.46;100.00;98300.28;6188542;23;20047;-95
2024/01/01 03:03:04;;;;;;;10.98;4.75;;;;;;;12.32;100.00;98298.22;6192136;23;20017;-95
2024/01/01 03:05:36;;;;;;;11.73;5.47;;;;;;;12.10;100.00;98299.09;6195276;23;20474;-96
2024/01/01 03:08:12;;;;;;;9.10;4.53;;;;;;;12.21;100.00;98309.31;6193247;23;20020;-95
2024/01/01 03:10:48;;;;;;;11.85;5.95;;;;;;;12.44;100.00;98326.16;6190677;23;20028;-94
2024/01/01 03:13:25;;;;;;;9.00;5.65;;;;;;;11.91;100.00;98279.44;6191066;23;20021;-94
2024/01/01 03:16:25;;;;;;;10.45;5.50;;;;;;;11.89;100.00;98278.66;6190099;23;20017;-94
2024/01/01 03:19:23;;;;;;;12.38;5.25;;;;;;;11.93;100.00;98272.25;6140458;23;20036;-95
2024/01/01 03:22:00;;;;;;;12.88;4.90;;;;;;;11.99;100.00;98280.03;6189015;23;20013;-94
2024/01/01 03:24:58;;;;;;;12.93;5.75;;;;;;;11.97;100.00;98281.88;6131388;23;20017;-95
2024/01/01 03:27:38;;;;;;;11.25;5.25;;;;;;;12.41;100.00;98356.47;6189096;23;20029;-93
2024/01/01 03:30:16;;;;;;;10.05;4.97;;;;;;;12.01;100.00;98279.94;6187639;23;20465;-94
2024/01/01 03:33:12;;;;;;;10.68;4.35;;;;;;;11.91;100.00;98274.13;6180891;23;20103;-95
2024/01/01 03:35:45;;;;;;;8.55;4.22;;;;;;;12.29;100.00;98335.66;6187478;23;20524;-95
2024/01/01 03:38:19;;;;;;;9.65;4.35;;;;;;;11.75;100.00;98272.94;6188000;23;20026;-94
2024/01/01 03:41:05;;;;;;;6.55;3.75;;;;;;;11.86;100.00;98297.38;6188967;23;20047;-94
2024/01/01 03:43:50;;;;;;;8.77;4.68;;;;;;;12.12;100.00;98336.31;6188285;23;20013;-95
2024/01/01 03:46:39;;;;;;;10.25;4.75;;;;;;;11.69;100.00;98290.94;6189384;23;20033;-95
2024/01/01 03:52:31;;;;;;;11.77;5.60;;;;;;;11.83;100.00;98289.50;6103191;23;20189;-94
2024/01/01 03:55:09;;;;;;;10.93;4.93;;;;;;;12.03;100.00;98326.03;6103872;23;20440;-94
2024/01/01 04:01:24;;;;;;;10.93;4.70;;;;;;;12.05;100.00;98343.69;6127434;23;20033;-94
2024/01/01 04:04:02;;;;;;;13.00;4.80;;;;;;;11.61;100.00;98285.03;6127493;23;20030;-95
2024/01/01 04:06:28;;;;;;;14.32;5.10;;;;;;;12.16;100.00;98359.25;6127601;23;20022;-94
2024/01/01 04:08:54;;;;;;;8.02;4.78;;;;;;;11.92;100.00;98313.16;6127583;23;20009;-93
2024/01/01 04:11:22;;;;;;;10.13;5.63;;;;;;;11.73;100.00;98281.00;6126985;23;20072;-96
2024/01/01 04:14:08;;;;;;;9.05;5.00;;;;;;;11.89;100.00;98299.97;6127815;23;20098;-96
2024/01/01 04:16:50;;;;;;;8.23;4.93;;;;;;;11.79;100.00;98272.78;6102758;23;20026;-95
2024/01/01 04:19:24;;;;;;;9.13;5.57;;;;;;;12.31;100.00;98342.66;6103314;23;20074;-94
2024/01/01 04:22:05;;;;;;;10.15;5.15;;;;;;;11.89;100.00;98289.31;6126445;23;20236;-95
2024/01/01 04:24:37;;;;;;;10.30;5.22;;;;;;;12.28;100.00;98339.25;6126950;23;20020;-94
2024/01/01 04:27:03;;;;;;;10.15;5.10;;;;;;;11.87;100.00;98277.81;6206367;23;20017;-94
2024/01/01 04:29:38;;;;;;;14.43;5.78;;;;;;;12.18;100.00;98335.22;6187721;23;20031;-95
2024/01/01 04:32:28;;;;;;;;;;;;;;;;;;;;;
2024/01/01 04:34:57;;;;;;;13.40;5.03;;;;;;;12.10;100.00;98339.06;6187126;23;20001;-94
2024/01/01 04:37:23;;;;;;;10.15;5.32;;;;;;;11.70;100.00;98279.31;6187148;23;20043;-93
2024/01/01 04:39:49;;;;;;;10.20;4.88;;;;;;;11.60;100.00;98259.34;6186616;23;20049;-95
2024/01/01 04:42:19;;;;;;;11.25;4.43;;;;;;;11.61;100.00;98269.03;6185812;23;20017;-94
2024/01/01 04:44:48;;;;;;;10.70;4.63;;;;;;;11.73;100.00;98296.97;6186567;23;20028;-94
2024/01/01 04:47:25;;;;;;;9.20;5.18;;;;;;;12.07;100.00;98356.97;6186832;23;20493;-94
2024/01/01 04:49:54;;;;;;;12.27;5.20;;;;;;;11.47;100.00;98290.00;6189725;23;20025;-95
2024/01/01 04:52:24;;;;;;;11.07;5.20;;;;;;;11.75;100.00;98310.25;6189301;23;20043;-94
2024/01/01 04:54:56;;;;;;;9.43;5.60;;;;;;;11.77;100.00;98325.25;6189835;23;20021;-93
2024/01/01 04:57:28;;;;;;;8.68;4.75;;;;;;;11.72;100.00;98317.44;6189635;23;20060;-94
2024/01/01 04:59:57;;;;;;;7.32;4.85;;;;;;;11.49;100.00;98290.81;6189785;23;20025;-93
2024/01/01 05:02:27;;;;;;;10.38;5.03;;;;;;;11.45;100.00;98299.84;6188820;23;20025;-93
2024/01/01 05:04:59;;;;;;;11.63;5.00;;;;;;;11.74;100.00;98360.00;6189825;23;20024;-94
2024/01/01 05:07:33;;;;;;;10.82;4.95;;;;;;;11.50;100.00;98335.16;6189545;23;20017;-94
2024/01/01 05:10:06;;;;;;;13.02;5.60;;;;;;;11.37;100.00;98293.97;6189613;23;20432;-94
2024/01/01 05:12:40;;;;;;;10.15;4.75;;;;;;;11.76;100.00;98371.47;6191015;23;20013;-94
2024/01/01 05:15:11;;;;;;;10.15;4.38;;;;;;;11.44;100.00;98301.66;6189635;23;20470;-95
2024/01/01 05:17:44;;;;;;;12.68;5.05;;;;;;;11.33;100.00;98295.88;6189459;23;20040;-95
2024/01/01 05:20:13;;;;;;;9.43;4.13;;;;;;;11.48;100.00;98321.91;6189332;23;20424;-94
2024/01/01 05:22:45;;;;;;;11.02;4.90;;;;;;;11.22;100.00;98298.06;6189653;23;20032;-93
2024/01/01 05:25:16;;;;;;;8.48;5.05;;;;;;;11.25;100.00;98304.13;6189242;23;20025;-94
2024/01/01 05:27:48;;;;;;;7.75;4.90;;;;;;;11.10;100.00;98310.91;6190280;23;20332;-94
2024/01/01 05:30:14;;;;;;;9.52;4.57;;;;;;;10.96;100.00;98299.03;6189812;23;20016;-94
2024/01/01 05:32:45;;;;;;;8.25;5.10;;;;;;;11.52;100.00;98382.09;6189888;23;20450;-95
2024/01/01 05:35:15;;;;;;;10.98;4.75;;;;;;;11.13;100.00;98339.19;6191785;23;20097;-94
2024/01/01 05:37:47;;;;;;;11.18;4.68;;;;;;;11.00;100.00;98312.16;6190034;23;20044;-94
2024/01/01 05:40:17;;;;;;;10.93;4.43;;;;;;;11.29;100.00;98351.00;6189301;23;20028;-93
2024/01/01 05:42:43;;;;;;;8.27;4.63;;;;;;;11.30;100.00;98368.72;6189083;23;20017;-94
2024/01/01 05:45:09;;;;;;;11.50;5.10;;;;;;;11.43;100.00;98400.25;6188767;23;20066;-94
2024/01/01 05:47:35;;;;;;;10.30;4.35;;;;;;;10.81;100.00;98322.56;6187432;23;20045;-94
2024/01/01 05:50:03;;;;;;;10.32;4.78;;;;;;;11.24;100.00;98382.25;6189561;23;20044;-95
2024/01/01 05:52:29;;;;;;;8.88;4.50;;;;;;;11.37;100.00;98400.44;6189002;23;20013;-94
2024/01/01 05:54:54;;;;;;;9.45;4.70;;;;;;;10.93;100.00;98336.34;6188465;23;20017;-93
2024/01/01 05:57:20;;;;;;;10.60;5.30;;;;;;;11.23;100.00;98393.84;6188821;23;20024;-94
2024/01/01 05:59:48;;;;;;;7.35;4.15;;;;;;;11.27;100.00;98387.44;6188540;23;20021;-94
2024/01/01 06:02:14;;;;;;;10.38;4.78;;;;;;;10.95;100.00;98332.75;6189001;23;20031;-94
2024/01/01 06:04:39;;;;;;;8.50;4.75;;;;;;;10.96;100.00;98331.81;6189130;23;20447;-95
2024/01/01 06:07:07;;;;;;;9.38;4.72;;;;;;;11.05;100.00;98330.63;6189819;23;20017;-96
2024/01/01 06:09:34;;;;;;;13.05;5.25;;;;;;;11.16;100.00;98343.53;6190767;23;20025;-96
2024/01/01 06:12:00;;;;;;;10.68;5.47;;;;;;;11.04;100.00;98335.06;6189442;23;20435;-95
2024/01/01 06:14:25;;;;;;;8.57;4.65;;;;;;;11.15;100.00;98339.16;6188961;23;20048;-95
2024/01/01 06:16:51;;;;;;;15.75;5.05;;;;;;;11.23;100.00;98334.38;6187915;23;20028;-96
2024/01/01 06:19:17;;;;;;;22.48;6.03;;;;;;;11.53;100.00;98396.28;6188834;23;20402;-94
2024/01/01 06:21:43;;;;;;;9.32;4.63;;;;;;;11.26;100.00;98332.50;6188109;23;20020;-95
2024/01/01 06:24:10;;;;;;;11.55;4.63;;;;;;;11.35;100.00;98349.06;6187526;23;20027;-95
2024/01/01 06:26:36;;;;;;;10.95;4.85;;;;;;;11.61;100.00;98412.00;6188625;23;20105;-94
2024/01/01 06:29:02;;;;;;;10.05;5.10;;;;;;;11.22;100.00;98344.16;6188842;23;20016;-94
2024/01/01 06:31:28;;;;;;;9.05;4.50;;;;;;;11.37;100.00;98384.47;6188378;23;20080;-95
2024/01/01 06:33:54;;;;;;;9.95;4.82;;;;;;;11.45;100.00;98403.69;6189526;23;20100;-95
2024/01/01 06:36:20;;;;;;;12.40;5.07;;;;;;;11.31;100.00;98381.09;6189684;23;20067;-95
2024/01/01 06:38:45;;;;;;;11.70;5.38;;;;;;;11.34;100.00;98384.56;6188787;23;20141;-95
2024/01/01 06:41:13;;;;;;;13.35;5.20;;;;;;;11.35;100.00;98375.69;6189298;23;20017;-95
2024/01/01 06:43:39;;;;;;;10.07;5.68;;;;;;;11.36;100.00;98369.41;6188819;23;20104;-96
2024/01/01 06:46:05;;;;;;;13.32;5.25;;;;;;;11.61;100.00;98407.53;6190639;23;20017;-95
2024/01/01 06:48:31;;;;;;;12.23;5.32;;;;;;;11.27;100.00;98352.84;6190234;23;20362;-96
2024/01/01 06:50:56;;;;;;;9.38;5.07;;;;;;;11.14;100.00;98340.06;6189590;23;20028;-95
2024/01/01 06:53:25;;;;;;;10.75;4.80;;;;;;;11.48;100.00;98414.25;6189540;23;20001;-96
2024/01/01 06:55:51;;;;;;;13.95;5.20;;;;;;;11.35;100.00;98383.66;6190591;23;20013;-93
2024/01/01 06:58:18;;;;;;;11.57;5.15;;;;;;;11.32;100.00;98379.31;6186947;23;20028;-95
2024/01/01 07:00:44;;;;;;;12.07;5.82;;;;;;;11.18;100.00;98355.84;6187521;23;20052;-93
2024/01/01 07:03:11;;;;;;;16.83;6.30;;;;;;;11.15;100.00;98366.63;6188647;23;20450;-94
2024/01/01 07:05:37;;;;;;;11.55;5.47;;;;;;;11.44;100.00;98385.97;6189416;23;20431;-94
2024/01/01 07:08:03;;;;;;;13.40;6.97;;;;;;;11.51;100.00;98388.38;6188874;23;20059;-96
2024/01/01 07:10:31;;;;;;;15.73;6.68;;;;;;;11.86;100.00;98419.91;6188665;23;20021;-96
2024/01/01 07:12:57;;;;;;;17.33;7.45;;;;;;;11.63;100.00;98368.41;6188631;23;20041;-95
2024/01/01 07:15:25;;;;;;;16.42;6.60;;;;;;;11.89;100.00;98404.72;6189106;23;20029;-95
2024/01/01 07:17:51;;;;;;;17.95;8.30;;;;;;;11.77;100.00;98388.31;6191847;23;20095;-95
2024/01/01 07:20:20;;;;;;;15.75;7.85;;;;;;;11.67;100.00;98391.31;6193464;23;20017;-94
2024/01/01 07:22:46;;;;;;;;;;;;;;;12.11;100.00;98467.88;6191604;23;20020;-95
2024/01/01 07:25:13;;;;;;;15.80;6.93;;;;;;;11.67;100.00;98378.00;6188797;23;19954;-95
2024/01/01 07:27:39;;;;;;;18.73;7.18;;;;;;;11.83;100.00;98396.06;6189033;23;20316;-95
2024/01/01 07:30:07;;;;;;;16.05;7.40;;;;;;;12.46;100.00;98474.50;6188398;23;20005;-96
2024/01/01 07:32:34;;;;;;;17.08;6.22;;;;;;;12.08;100.00;98442.22;6188634;23;20017;-95
2024/01/01 07:35:00;;;;;;;14.23;6.45;;;;;;;11.80;100.00;98406.84;6188573;23;20324;-94
2024/01/01 07:37:26;;;;;;;14.95;6.00;;;;;;;12.16;100.00;98475.69;6189486;23;20101;-95
2024/01/01 07:39:52;;;;;;;24.33;6.07;;;;;;;11.95;100.00;98445.38;6189939;23;20092;-94
2024/01/01 07:42:18;;;;;;;10.98;5.75;;;;;;;11.92;100.00;98446.38;6190018;23;20420;-95
2024/01/01 07:44:44;;;;;;;11.10;5.88;;;;;;;11.77;100.00;98405.16;6189830;23;20021;-95
2024/01/01 07:47:10;;;;;;;13.13;5.30;;;;;;;12.02;100.00;98442.44;6188618;23;20017;-95
2024/01/01 07:49:37;;;;;;;11.20;5.28;;;;;;;12.10;100.00;98455.44;6190592;23;20461;-94
2024/01/01 07:52:05;;;;;;;13.88;4.85;;;;;;;12.21;100.00;98477.25;6190215;23;20410;-95
2024/01/01 07:54:31;;;;;;;10.73;4.28;;;;;;;12.18;100.00;98473.84;6189998;23;20344;-93
2024/01/01 07:56:57;;;;;;;10.13;5.13;;;;;;;11.76;100.00;98413.22;6191295;23;20044;-95
2024/01/01 07:59:23;;;;;;;7.05;3.88;;;;;;;12.03;100.00;98481.47;6194014;23;20363;-96
2024/01/01 08:01:49;;;;;;;10.48;4.45;;;;;;;11.88;100.00;98434.97;6195110;23;20064;-94
2024/01/01 08:04:14;;;;;;;7.43;4.13;;;;;;;12.42;100.00;98510.22;6197968;23;20021;-95
2024/01/01 08:06:42;;;;;;;10.50;4.28;;;;;;;12.27;100.00;98489.47;6198254;23;20067;-96
2024/01/01 08:09:13;;;;;;;9.82;5.25;;;;;;;12.38;100.00;98497.06;6193837;23;20015;-96
2024/01/01 08:11:39;;;;;;;10.45;5.18;;;;;;;12.36;100.00;98507.81;6193683;23;20090;-96
2024/01/01 08:14:05;;;;;;;10.70;5.05;;;;;;;12.21;100.00;98471.94;6192373;23;20443;-95
2024/01/01 08:16:33;;;;;;;11.68;5.05;;;;;;;12.07;100.00;98429.78;6192380;23;20021;-95
2024/01/01 08:18:59;;;;;;;12.13;5.85;;;;;;;12.21;100.00;98444.38;6193296;23;20027;-95
2024/01/01 08:21:25;;;;;;;12.65;6.32;;;;;;;12.18;100.00;98431.19;6193954;23;20025;-93
2024/01/01 08:23:56;;;;;;;12.80;6.05;;;;;;;12.43;100.00;98466.63;6198745;23;20028;-95
2024/01/01 08:26:22;;;;;;;10.15;5.55;;;;;;;12.76;100.00;98518.69;6194846;23;20431;-94
2024/01/01 08:28:51;;;;;;;14.00;5.88;;;;;;;12.33;100.00;98452.78;6198096;23;20021;-94
2024/01/01 08:31:18;;;;;;;11.63;6.07;;;;;;;12.42;100.00;98451.53;6200349;23;20013;-95
2024/01/01 08:33:44;;;;;;;15.20;6.10;;;;;;;12.50;100.00;98467.25;6195380;23;20020;-95
2024/01/01 08:36:10;;;;;;;10.27;5.68;;;;;;;12.58;100.00;98485.59;6193609;23;20020;-93
2024/01/01 08:38:36;;;;;;;13.57;5.65;;;;;;;12.84;100.00;98532.63;6193885;23;20043;-94
2024/01/01 08:41:04;;;;;;;9.70;5.07;;;;;;;12.60;100.00;98481.06;6194206;23;20031;-92
2024/01/01 08:43:30;;;;;;;11.32;4.65;;;;;;;12.53;100.00;98484.00;6195651;23;20039;-96
2024/01/01 08:46:00;;;;;;;9.63;5.40;;;;;;;12.57;100.00;98482.06;6164256;23;20021;-95
2024/01/01 08:48:26;;;;;;;8.52;4.47;;;;;;;12.60;100.00;98503.31;6164575;23;20001;-92
2024/01/01 08:50:52;;;;;;;5.70;2.58;;;;;;;12.52;100.00;98492.91;6188551;23;20082;-93
2024/01/01 08:53:17;;;;;;;5.80;2.03;;;;;;;12.47;100.00;98516.25;6162224;23;20108;-95
2024/01/01 08:55:43;;;;;;;8.52;1.63;;;;;;;12.36;100.00;98486.47;6164509;23;20021;-95
2024/01/01 08:58:16;;;;;;;6.65;1.30;;;;;;;12.17;100.00;98482.78;6188812;23;20021;-95
2024/01/01 09:00:42;;;;;;;4.78;1.75;;;;;;;12.18;100.00;98488.03;6184820;23;20029;-93
2024/01/01 09:03:08;;;;;;;4.50;1.50;;;;;;;12.36;100.00;98488.25;6136343;23;20439;-94
2024/01/01 09:05:34;;;;;;;3.78;1.38;;;;;;;12.54;100.00;98508.88;6136187;23;20071;-95
2024/01/01 09:08:00;;;;;;;3.15;1.15;;;;;;;12.76;100.00;98540.91;6136264;23;20025;-95
2024/01/01 09:10:26;;;;;;;6.03;1.65;;;;;;;12.54;100.00;98483.06;6133608;23;20017;-94
2024/01/01 09:12:53;;;;;;;5.25;1.25;;;;;;;12.65;100.00;98495.13;6133690;23;20104;-94
2024/01/01 09:15:20;;;;;;;8.07;2.05;;;;;;;12.65;100.00;98489.78;6133307;23;20439;-95
2024/01/01 09:17:46;;;;;;;4.68;1.40;;;;;;;12.80;100.00;98504.31;6134811;23;20471;-95
2024/01/01 09:20:12;;;;;;;2.47;0.98;;;;;;;12.61;100.00;98491.69;6134665;23;20022;-95
2024/01/01 09:22:38;;;;;;;6.28;1.58;;;;;;;12.88;100.00;98526.19;6158602;23;20002;-95
2024/01/01 09:25:07;;;;;;;8.93;2.53;;;;;;;12.81;100.00;98490.88;6159598;23;20347;-93
2024/01/01 09:27:36;;;;;;;8.20;3.85;;;;;;;13.24;100.00;98547.00;6134740;23;20029;-96
2024/01/01 09:30:07;;;;;;;13.75;5.75;;;;;;;13.07;100.00;98520.97;6132580;23;20017;-93
2024/01/01 09:32:35;;;;;;;13.73;5.50;;;;;;;12.89;100.00;98494.13;6133316;23;20025;-95
2024/01/01 09:35:00;;;;;;;12.02;4.38;;;;;;;12.95;100.00;98496.53;6135849;23;20026;-94
2024/01/01 09:40:54;;;;;;;10.82;3.88;;;;;;;13.17;100.00;98529.50;6134478;23;20026;-95
2024/01/01 09:43:20;;;;;;;4.72;2.22;;;;;;;13.29;100.00;98532.56;6135662;23;20445;-95
2024/01/01 09:45:48;;;;;;;9.38;3.22;;;;;;;13.45;100.00;98571.97;6134939;23;20060;-95
2024/01/01 09:48:16;;;;;;;10.13;2.90;;;;;;;12.93;100.00;98495.72;6135257;23;20022;-96
2024/01/01 09:50:43;;;;;;;6.88;2.42;;;;;;;13.02;100.00;98497.16;6136890;23;20021;-94
2024/01/01 09:53:10;;;;;;;11.93;3.17;;;;;;;13.23;100.00;98516.75;6136891;23;20025;-94
2024/01/01 09:55:38;;;;;;;17.40;5.88;;;;;;;13.11;100.00;98488.75;6137556;23;20021;-95
2024/01/01 09:58:04;;;;;;;9.25;2.97;;;;;;;13.39;100.00;98540.19;6164606;23;20543;-96
2024/01/01 10:00:30;;;;;;;6.75;2.15;;;;;;;13.37;100.00;98531.34;6148893;23;20026;-96
2024/01/01 10:03:09;;;;;;;8.23;2.38;;;;;;;13.39;100.00;98510.81;6161643;23;20017;-95
2024/01/01 10:05:36;;;;;;;7.20;2.63;;;;;;;13.44;100.00;98512.31;6159932;23;20021;-95
2024/01/01 10:08:11;;;;;;;11.25;2.95;;;;;;;13.43;100.00;98493.72;6160218;23;20408;-94
2024/01/01 10:10:41;;;;;;;7.43;3.08;;;;;;;13.40;100.00;98484.00;6159251;23;20116;-95
2024/01/01 10:13:08;;;;;;;7.28;2.88;;;;;;;13.60;100.00;98507.19;6160687;23;20400;-93
2024/01/01 10:15:39;;;;;;;10.30;2.72;;;;;;;13.76;100.00;98539.47;6160858;23;20708;-96
2024/01/01 10:18:10;;;;;;;9.05;3.85;;;;;;;13.63;100.00;98517.75;6161168;23;20013;-95
2024/01/01 10:20:38;;;;;;;7.72;4.22;;;;;;;13.87;100.00;98547.88;6161928;23;20031;-94
2024/01/01 10:23:25;;;;;;;10.52;3.90;;;;;;;13.51;100.00;98492.44;6161633;23;20017;-95
2024/01/01 10:26:02;;;;;;;7.75;3.92;;;;;;;13.95;100.00;98553.75;6162473;23;20028;-95
2024/01/01 10:28:30;;;;;;;14.18;4.80;;;;;;;13.54;100.00;98480.75;6161088;23;20043;-95
2024/01/01 10:30:56;;;;;;;10.00;3.47;;;;;;;13.59;100.00;98476.06;6165283;23;20103;-96
2024/01/01 10:33:26;;;;;;;9.95;3.90;;;;;;;13.95;100.00;98539.53;6165519;23;20022;-96
2024/01/01 10:35:54;;;;;;;13.73;5.13;;;;;;;13.68;100.00;98486.34;6164704;23;20022;-94
2024/01/01 10:38:33;;;;;;;10.05;4.07;;;;;;;13.60;100.00;98474.25;6164447;23;20017;-96
2024/01/01 10:41:03;;;;;;;14.30;4.75;;;;;;;13.67;100.00;98471.25;6184730;23;20113;-95
2024/01/01 10:43:35;;;;;;;11.50;4.47;;;;;;;13.68;100.00;98486.34;6161513;23;20080;-96
2024/01/01 10:46:03;;;;;;;8.07;3.40;;;;;;;13.71;100.00;98483.53;6191250;23;20081;-95
2024/01/01 10:48:32;;;;;;;11.25;3.90;;;;;;;13.74;100.00;98488.75;6187365;23;20017;-94
2024/01/01 10:51:21;;;;;;;9.02;3.90;;;;;;;13.96;100.00;98518.03;6162144;23;20033;-95
2024/01/01 10:54:13;;;;;;;9.02;3.63;;;;;;;13.93;100.00;98494.13;6164842;23;20048;-95
2024/01/01 10:56:59;;;;;;;8.70;3.50;;;;;;;13.89;100.00;98475.63;6163563;23;20056;-96
2024/01/01 10:59:39;;;;;;;14.57;3.47;;;;;;;13.77;100.00;98467.25;6161198;23;20048;-96
2024/01/01 11:02:05;;;;;;;12.90;3.28;;;;;;;13.90;100.00;98477.38;6160767;23;20021;-95
2024/01/01 11:04:36;;;;;;;10.75;2.83;;;;;;;13.83;100.00;98470.56;6167955;23;20343;-94
2024/01/01 11:07:04;;;;;;;5.47;1.55;;;;;;;13.89;100.00;98475.63;6167425;23;20100;-95
2024/01/01 11:09:34;;;;;;;5.60;2.40;;;;;;;13.98;100.00;98488.59;6167892;23;20452;-94
2024/01/01 11:12:05;;;;;;;10.93;2.63;;;;;;;13.82;100.00;98469.72;6165238;23;20017;-95
2024/01/01 11:14:34;;;;;;;6.72;2.35;;;;;;;13.86;100.00;98473.97;6168136;23;20017;-93
2024/01/01 11:17:03;;;;;;;7.90;2.92;;;;;;;14.07;100.00;98498.00;6193366;23;20025;-93
2024/01/01 11:19:43;;;;;;;8.23;2.97;;;;;;;14.03;100.00;98486.59;6169103;23;20014;-94
2024/01/01 11:22:30;;;;;;;3.83;2.05;;;;;;;13.57;100.00;98459.22;6166450;23;20026;-95
2024/01/01 11:25:02;;;;;;;7.70;1.60;;;;;;;13.65;100.00;98457.09;6193203;23;20045;-95
2024/01/01 11:27:31;;;;;;;8.70;1.90;;;;;;;13.51;100.00;98441.69;6167415;23;20028;-96
2024/01/01 11:30:03;;;;;;;7.28;2.17;;;;;;;14.04;100.00;98516.84;6168245;23;20048;-94
2024/01/01 11:32:35;;;;;;;5.10;2.08;;;;;;;13.92;100.00;98512.91;6192468;23;20076;-95
2024/01/01 11:35:12;;;;;;;4.53;2.05;;;;;;;13.52;100.00;98438.06;6191644;23;20076;-95
2024/01/01 11:37:40;;;;;;;3.65;1.50;;;;;;;13.71;100.00;98467.50;6162020;23;20013;-93
2024/01/01 11:40:07;;;;;;;6.55;1.98;;;;;;;13.54;100.00;98438.00;6159059;23;20019;-95
2024/01/01 11:42:35;;;;;;;4.75;1.80;;;;;;;13.92;100.00;98486.19;6160523;23;20104;-94
2024/01/01 11:45:08;;;;;;;7.32;2.10;;;;;;;13.68;100.00;98424.03;6163321;23;20020;-96
2024/01/01 11:47:38;;;;;;;10.95;2.10;;;;;;;13.70;100.00;98428.34;6187310;23;20383;-94
2024/01/01 11:50:09;;;;;;;7.65;1.65;;;;;;;13.64;100.00;98420.63;6161748;23;20028;-93
2024/01/01 11:52:35;;;;;;;8.38;1.50;;;;;;;13.76;100.00;98436.09;6161152;23;20495;-95
2024/01/01 11:55:03;;;;;;;6.63;2.17;;;;;;;13.84;100.00;98442.91;6159947;23;20006;-95
2024/01/01 11:57:30;;;;;;;4.63;1.63;;;;;;;13.81;100.00;98429.69;6164883;23;20118;-93
2024/01/01 11:59:59;;;;;;;3.33;1.30;;;;;;;13.76;100.00;98436.09;6187152;23;20021;-95
2024/01/01 12:02:26;;;;;;;6.22;1.92;;;;;;;14.28;100.00;98501.50;6167108;23;20017;-96
2024/01/01 12:04:53;;;;;;;13.57;2.35;;;;;;;13.82;100.00;98426.09;6166877;23;20114;-94